Time;durP1;ratioP1;P1;durP2;ratioP2;P2;SDS_P1;SDS_P2;PMS_P1;PMS_P2;Temp;Humidity;BMP_temperature;BMP_pressure;BME280_temperature;BME280_humidity;BME280_pressure;Samples;Min_cycle;Max_cycle;Signal;HPM_P1;HPM_P2
2022/04/24 00:01:31;;;;;;;111.15;46.90;;;;;;;;;;4973229;28;20057;-64
2022/04/24 00:03:58;;;;;;;71.70;30.45;;;;;;;;;;4973246;28;20058;-63
2022/04/24 00:06:25;;;;;;;67.25;30.05;;;;;;;;;;4973049;28;20050;-64
2022/04/24 00:08:52;;;;;;;79.93;33.45;;;;;;;;;;4973213;28;20050;-64
2022/04/24 00:11:19;;;;;;;69.90;30.77;;;;;;;;;;4973243;28;20485;-64
2022/04/24 00:13:46;;;;;;;78.63;33.20;;;;;;;;;;4973151;28;20571;-65
2022/04/24 00:16:13;;;;;;;70.88;30.13;;;;;;;;;;4972967;28;20054;-63
2022/04/24 00:18:42;;;;;;;66.78;29.45;;;;;;;;;;4972986;28;20055;-63
2022/04/24 00:21:09;;;;;;;64.45;28.45;;;;;;;;;;4972585;28;20054;-63
2022/04/24 00:23:36;;;;;;;66.90;28.50;;;;;;;;;;4976473;28;20401;-63
2022/04/24 00:26:03;;;;;;;67.93;28.98;;;;;;;;;;4972439;28;20348;-64
2022/04/24 00:28:30;;;;;;;72.38;28.05;;;;;;;;;;4972946;28;20116;-64
2022/04/24 00:30:57;;;;;;;62.33;29.58;;;;;;;;;;4972921;28;20051;-63
2022/04/24 00:33:24;;;;;;;67.53;28.65;;;;;;;;;;4972965;28;20078;-65
2022/04/24 00:35:52;;;;;;;68.03;30.75;;;;;;;;;;4972924;28;20050;-65
2022/04/24 00:38:19;;;;;;;69.38;31.23;;;;;;;;;;4972515;28;20518;-64
2022/04/24 00:40:48;;;;;;;61.58;28.02;;;;;;;;;;4972285;28;20055;-64
2022/04/24 00:43:15;;;;;;;65.55;27.95;;;;;;;;;;4972499;28;20047;-63
2022/04/24 00:45:42;;;;;;;65.68;29.35;;;;;;;;;;4978133;28;20057;-64
2022/04/24 00:48:09;;;;;;;58.80;27.17;;;;;;;;;;4991210;28;20054;-64
2022/04/24 00:50:38;;;;;;;70.70;31.33;;;;;;;;;;4991596;28;20051;-63
2022/04/24 00:53:07;;;;;;;63.08;28.27;;;;;;;;;;4991170;28;20050;-64
2022/04/24 00:55:34;;;;;;;65.10;29.33;;;;;;;;;;4991428;28;20514;-64
2022/04/24 00:58:01;;;;;;;64.95;27.92;;;;;;;;;;5006896;28;20093;-64
2022/04/24 01:00:28;;;;;;;64.35;28.20;;;;;;;;;;5011699;28;20153;-64
2022/04/24 01:02:56;;;;;;;67.38;28.67;;;;;;;;;;5012819;28;20045;-64
2022/04/24 01:05:25;;;;;;;60.47;27.52;;;;;;;;;;5013048;28;20054;-65
2022/04/24 01:07:52;;;;;;;60.85;27.60;;;;;;;;;;5013833;28;20050;-63
2022/04/24 01:10:20;;;;;;;64.50;28.80;;;;;;;;;;5013671;28;20042;-64
2022/04/24 01:12:47;;;;;;;64.60;30.02;;;;;;;;;;5014100;28;20050;-64
2022/04/24 01:15:14;;;;;;;66.18;29.58;;;;;;;;;;5014021;28;20052;-64
2022/04/24 01:17:41;;;;;;;62.90;30.85;;;;;;;;;;5013972;28;20490;-63
2022/04/24 01:20:10;;;;;;;64.55;29.27;;;;;;;;;;5013506;28;20045;-63
2022/04/24 01:22:38;;;;;;;63.40;29.42;;;;;;;;;;5013785;28;20419;-64
2022/04/24 01:25:06;;;;;;;66.28;29.73;;;;;;;;;;5013155;28;20060;-64
2022/04/24 01:27:33;;;;;;;78.30;35.17;;;;;;;;;;5012992;28;20046;-64
2022/04/24 01:30:00;;;;;;;64.53;31.17;;;;;;;;;;5012786;28;20046;-63
2022/04/24 01:32:27;;;;;;;63.63;28.75;;;;;;;;;;5012642;28;20088;-64
2022/04/24 01:34:54;;;;;;;62.72;29.33;;;;;;;;;;5012552;28;20049;-63
2022/04/24 01:37:21;;;;;;;61.58;28.48;;;;;;;;;;5012824;28;20045;-63
2022/04/24 01:39:49;;;;;;;60.58;29.65;;;;;;;;;;5012631;28;20046;-64
2022/04/24 01:42:16;;;;;;;67.70;29.38;;;;;;;;;;5012438;28;20060;-64
2022/04/24 01:44:43;;;;;;;63.17;29.38;;;;;;;;;;5012656;28;20061;-65
2022/04/24 01:47:10;;;;;;;65.70;29.77;;;;;;;;;;4994746;28;20488;-63
2022/04/24 01:49:37;;;;;;;62.25;28.48;;;;;;;;;;4993104;28;20052;-63
2022/04/24 01:52:06;;;;;;;59.65;29.65;;;;;;;;;;4993409;28;20419;-64
2022/04/24 01:54:33;;;;;;;61.88;29.63;;;;;;;;;;4993183;28;20047;-64
2022/04/24 01:57:01;;;;;;;64.53;30.08;;;;;;;;;;4993297;28;20051;-65
2022/04/24 01:59:28;;;;;;;62.60;29.55;;;;;;;;;;4993263;28;20487;-64
2022/04/24 02:01:55;;;;;;;67.60;31.17;;;;;;;;;;4996851;28;20052;-65
2022/04/24 02:04:23;;;;;;;64.93;29.05;;;;;;;;;;4996968;28;20061;-65
2022/04/24 02:06:50;;;;;;;61.88;29.30;;;;;;;;;;4996396;28;20109;-64
2022/04/24 02:09:17;;;;;;;58.17;28.70;;;;;;;;;;4997003;28;20046;-65
2022/04/24 02:11:44;;;;;;;63.17;29.75;;;;;;;;;;4996339;28;20054;-64
2022/04/24 02:14:12;;;;;;;59.85;28.27;;;;;;;;;;4996757;28;20042;-64
2022/04/24 02:16:39;;;;;;;61.45;29.00;;;;;;;;;;4996791;28;20411;-65
2022/04/24 02:19:06;;;;;;;58.92;29.48;;;;;;;;;;4997046;28;20046;-64
2022/04/24 02:21:33;;;;;;;61.58;27.88;;;;;;;;;;4996783;28;20061;-64
2022/04/24 02:24:00;;;;;;;51.88;27.10;;;;;;;;;;4996437;28;20054;-63
2022/04/24 02:26:27;;;;;;;55.55;26.73;;;;;;;;;;4996235;28;20050;-64
2022/04/24 02:28:55;;;;;;;53.70;28.20;;;;;;;;;;4996940;28;20081;-64
2022/04/24 02:31:23;;;;;;;54.67;26.63;;;;;;;;;;4995799;28;20109;-64
2022/04/24 02:33:50;;;;;;;54.72;26.95;;;;;;;;;;4996514;28;20049;-64
2022/04/24 02:36:17;;;;;;;49.58;27.23;;;;;;;;;;4995910;28;20051;-63
2022/04/24 02:38:45;;;;;;;55.03;26.63;;;;;;;;;;4996141;28;20103;-63
2022/04/24 02:41:12;;;;;;;52.85;25.92;;;;;;;;;;4996616;28;20050;-64
2022/04/24 02:43:39;;;;;;;53.17;26.52;;;;;;;;;;4996602;28;20053;-65
2022/04/24 02:46:06;;;;;;;50.85;26.17;;;;;;;;;;4987163;28;20054;-65
2022/04/24 02:48:34;;;;;;;53.88;26.52;;;;;;;;;;4976708;28;20054;-65
2022/04/24 02:51:03;;;;;;;51.28;25.23;;;;;;;;;;4976189;28;20412;-64
2022/04/24 02:53:30;;;;;;;54.50;27.02;;;;;;;;;;4976383;28;20050;-64
2022/04/24 02:55:57;;;;;;;53.70;27.33;;;;;;;;;;4975960;28;20536;-64
2022/04/24 02:58:25;;;;;;;52.30;26.05;;;;;;;;;;4976185;28;20662;-63
2022/04/24 03:00:54;;;;;;;53.58;26.58;;;;;;;;;;4975926;28;20137;-63
2022/04/24 03:03:22;;;;;;;49.85;26.08;;;;;;;;;;4976212;28;20053;-64
2022/04/24 03:05:51;;;;;;;51.67;26.50;;;;;;;;;;4975976;28;20065;-64
2022/04/24 03:08:19;;;;;;;50.33;26.48;;;;;;;;;;4975841;28;20054;-63
2022/04/24 03:10:46;;;;;;;56.80;27.42;;;;;;;;;;4975287;28;20043;-62
2022/04/24 03:13:13;;;;;;;52.75;26.40;;;;;;;;;;4975949;28;20057;-63
2022/04/24 03:15:40;;;;;;;51.00;26.38;;;;;;;;;;4975739;28;20046;-63
2022/04/24 03:18:07;;;;;;;48.97;26.35;;;;;;;;;;4975472;28;20556;-64
2022/04/24 03:20:34;;;;;;;52.63;27.17;;;;;;;;;;4975393;28;20061;-63
2022/04/24 03:23:03;;;;;;;52.38;27.35;;;;;;;;;;4976057;28;20043;-63
2022/04/24 03:25:30;;;;;;;56.25;28.00;;;;;;;;;;4975516;28;20601;-64
2022/04/24 03:27:56;;;;;;;51.10;26.40;;;;;;;;;;4975791;28;20055;-63
2022/04/24 03:30:24;;;;;;;61.92;29.70;;;;;;;;;;4975397;28;20057;-63
2022/04/24 03:32:51;;;;;;;56.90;29.05;;;;;;;;;;4975466;28;20084;-68
2022/04/24 03:35:18;;;;;;;54.97;27.60;;;;;;;;;;4975237;28;20440;-65
2022/04/24 03:37:45;;;;;;;56.53;28.17;;;;;;;;;;4975472;28;20113;-64
2022/04/24 03:40:13;;;;;;;57.80;27.77;;;;;;;;;;4975281;28;20053;-62
2022/04/24 03:42:40;;;;;;;58.10;30.17;;;;;;;;;;4975219;28;20054;-64
2022/04/24 03:45:11;;;;;;;56.55;29.73;;;;;;;;;;4975419;28;20493;-63
2022/04/24 03:47:38;;;;;;;59.20;29.13;;;;;;;;;;4975287;28;20057;-62
2022/04/24 03:50:06;;;;;;;55.78;29.50;;;;;;;;;;4975506;28;20042;-65
2022/04/24 03:52:33;;;;;;;57.75;29.50;;;;;;;;;;4975202;28;20058;-64
2022/04/24 03:55:00;;;;;;;54.78;29.20;;;;;;;;;;4975217;28;20051;-64
2022/04/24 03:57:29;;;;;;;63.53;29.45;;;;;;;;;;4975300;28;20047;-63
2022/04/24 03:59:56;;;;;;;55.47;29.60;;;;;;;;;;4975558;28;20461;-63
2022/04/24 04:02:24;;;;;;;55.90;31.35;;;;;;;;;;4975118;28;20055;-63
2022/04/24 04:04:50;;;;;;;56.85;28.30;;;;;;;;;;4975166;28;20047;-64
2022/04/24 04:07:17;;;;;;;55.58;28.00;;;;;;;;;;4974949;28;20053;-64
2022/04/24 04:09:44;;;;;;;59.22;29.83;;;;;;;;;;4974607;28;20047;-63
2022/04/24 04:12:12;;;;;;;59.83;33.22;;;;;;;;;;4974837;28;20043;-63
2022/04/24 04:14:40;;;;;;;68.40;35.60;;;;;;;;;;4975076;28;20047;-63
2022/04/24 04:17:08;;;;;;;61.83;31.80;;;;;;;;;;4974501;28;20492;-64
2022/04/24 04:19:35;;;;;;;55.90;28.80;;;;;;;;;;4974618;28;20105;-65
2022/04/24 04:22:02;;;;;;;57.75;29.80;;;;;;;;;;4974605;28;20133;-64
2022/04/24 04:24:29;;;;;;;55.75;27.90;;;;;;;;;;4974012;28;20485;-63
2022/04/24 04:26:56;;;;;;;56.50;28.85;;;;;;;;;;4974393;28;20075;-64
2022/04/24 04:29:23;;;;;;;88.60;48.00;;;;;;;;;;4974680;28;20137;-63
2022/04/24 04:31:52;;;;;;;86.10;45.78;;;;;;;;;;4974247;28;20050;-64
2022/04/24 04:34:19;;;;;;;58.55;30.02;;;;;;;;;;4974608;28;20054;-63
2022/04/24 04:36:46;;;;;;;52.53;27.92;;;;;;;;;;4974584;28;20082;-64
2022/04/24 04:39:13;;;;;;;64.43;34.47;;;;;;;;;;4974327;28;20125;-64
2022/04/24 04:41:40;;;;;;;88.57;43.55;;;;;;;;;;4974023;28;20057;-62
2022/04/24 04:44:07;;;;;;;54.13;28.45;;;;;;;;;;4974794;28;20448;-64
2022/04/24 04:46:34;;;;;;;51.08;27.42;;;;;;;;;;4974071;28;20501;-64
2022/04/24 04:49:03;;;;;;;52.47;26.92;;;;;;;;;;4974373;28;20164;-64
2022/04/24 04:51:30;;;;;;;52.17;27.35;;;;;;;;;;4973580;28;20046;-62
2022/04/24 04:53:57;;;;;;;51.80;26.65;;;;;;;;;;4974440;28;20043;-62
2022/04/24 04:56:24;;;;;;;51.50;28.05;;;;;;;;;;4973284;28;20055;-63
2022/04/24 04:58:51;;;;;;;53.00;27.13;;;;;;;;;;4973250;28;20054;-63
2022/04/24 05:01:18;;;;;;;53.00;26.85;;;;;;;;;;4973174;28;20046;-62
2022/04/24 05:03:45;;;;;;;49.42;25.67;;;;;;;;;;4973376;28;20043;-63
2022/04/24 05:06:13;;;;;;;52.33;29.08;;;;;;;;;;4973030;28;20050;-63
2022/04/24 05:08:40;;;;;;;45.25;24.27;;;;;;;;;;4973052;28;20070;-64
2022/04/24 05:11:07;;;;;;;47.10;25.08;;;;;;;;;;4973032;28;20430;-63
2022/04/24 05:13:34;;;;;;;49.70;27.20;;;;;;;;;;4973678;28;20055;-63
2022/04/24 05:16:01;;;;;;;49.17;26.50;;;;;;;;;;4973088;28;20047;-63
2022/04/24 05:18:28;;;;;;;44.33;25.70;;;;;;;;;;4973330;28;20043;-63
2022/04/24 05:20:56;;;;;;;44.17;24.88;;;;;;;;;;4973154;28;20137;-63
2022/04/24 05:23:24;;;;;;;46.22;24.00;;;;;;;;;;4972764;28;20051;-63
2022/04/24 05:25:51;;;;;;;50.45;28.17;;;;;;;;;;4972810;28;20043;-63
2022/04/24 05:28:18;;;;;;;47.05;24.40;;;;;;;;;;4972884;28;20129;-63
2022/04/24 05:30:45;;;;;;;45.80;23.98;;;;;;;;;;4972979;28;20424;-63
2022/04/24 05:33:17;;;;;;;44.50;24.77;;;;;;;;;;4972899;28;20054;-63
2022/04/24 05:35:44;;;;;;;42.30;23.67;;;;;;;;;;4976186;28;20126;-63
2022/04/24 05:38:11;;;;;;;45.72;24.95;;;;;;;;;;4977184;28;20047;-63
2022/04/24 05:40:40;;;;;;;43.55;22.65;;;;;;;;;;4977149;28;20420;-63
2022/04/24 05:43:07;;;;;;;37.45;21.83;;;;;;;;;;4976657;28;20054;-63
2022/04/24 05:45:34;;;;;;;40.63;22.33;;;;;;;;;;4981132;28;20046;-63
2022/04/24 05:48:01;;;;;;;40.78;22.88;;;;;;;;;;4995974;28;20518;-63
2022/04/24 05:50:28;;;;;;;39.42;22.42;;;;;;;;;;4995959;28;20050;-63
2022/04/24 05:52:55;;;;;;;40.35;21.95;;;;;;;;;;4995760;28;20046;-63
2022/04/24 05:55:23;;;;;;;39.05;22.58;;;;;;;;;;4995745;28;20464;-63
2022/04/24 05:57:52;;;;;;;43.67;24.02;;;;;;;;;;4995986;28;20058;-64
2022/04/24 06:00:19;;;;;;;44.42;24.50;;;;;;;;;;4996009;28;20053;-63
2022/04/24 06:02:46;;;;;;;43.50;22.35;;;;;;;;;;4995597;28;20122;-63
2022/04/24 06:05:13;;;;;;;38.17;21.23;;;;;;;;;;4995613;28;20396;-63
2022/04/24 06:07:41;;;;;;;37.50;20.77;;;;;;;;;;4995633;28;20415;-63
2022/04/24 06:10:11;;;;;;;36.13;20.92;;;;;;;;;;4995572;28;20053;-63
2022/04/24 06:12:45;;;;;;;36.28;19.52;;;;;;;;;;4995547;28;20053;-63
2022/04/24 06:15:15;;;;;;;37.25;20.13;;;;;;;;;;4995612;28;20058;-63
2022/04/24 06:17:43;;;;;;;37.30;19.92;;;;;;;;;;4995314;28;20053;-63
2022/04/24 06:20:11;;;;;;;35.65;19.85;;;;;;;;;;4995751;28;20109;-63
2022/04/24 06:22:45;;;;;;;36.20;20.48;;;;;;;;;;4995328;28;20052;-63
2022/04/24 06:25:16;;;;;;;35.92;19.38;;;;;;;;;;4995352;28;20491;-63
2022/04/24 06:27:44;;;;;;;35.35;19.67;;;;;;;;;;4995399;28;20046;-63
2022/04/24 06:30:11;;;;;;;37.10;19.48;;;;;;;;;;4995521;28;20123;-63
2022/04/24 06:32:41;;;;;;;40.50;19.83;;;;;;;;;;4995441;28;20050;-63
2022/04/24 06:35:09;;;;;;;35.92;19.60;;;;;;;;;;4995106;28;20046;-64
2022/04/24 06:37:37;;;;;;;35.47;19.10;;;;;;;;;;4995201;28;20046;-64
2022/04/24 06:40:04;;;;;;;37.13;18.20;;;;;;;;;;4995138;28;20068;-64
2022/04/24 06:42:31;;;;;;;33.83;18.67;;;;;;;;;;4995379;28;20053;-64
2022/04/24 06:44:58;;;;;;;33.42;18.10;;;;;;;;;;4994832;28;20158;-64
2022/04/24 06:47:27;;;;;;;32.17;17.23;;;;;;;;;;4974726;28;20091;-63
2022/04/24 06:49:56;;;;;;;31.20;16.92;;;;;;;;;;4976075;28;20051;-63
2022/04/24 06:52:22;;;;;;;28.55;15.48;;;;;;;;;;4975374;28;20062;-64
2022/04/24 06:54:49;;;;;;;29.23;15.80;;;;;;;;;;4975114;28;20053;-64
2022/04/24 06:57:16;;;;;;;24.20;13.45;;;;;;;;;;4975658;28;20055;-64
2022/04/24 06:59:43;;;;;;;21.88;12.07;;;;;;;;;;4974440;28;20073;-64
2022/04/24 07:02:10;;;;;;;23.17;12.80;;;;;;;;;;4974646;28;20055;-63
2022/04/24 07:04:37;;;;;;;21.67;11.77;;;;;;;;;;4974375;28;20477;-63
2022/04/24 07:07:06;;;;;;;17.50;10.48;;;;;;;;;;4975088;28;20046;-64
2022/04/24 07:09:33;;;;;;;16.77;9.57;;;;;;;;;;4975098;28;20047;-63
2022/04/24 07:12:00;;;;;;;14.65;8.30;;;;;;;;;;4973991;28;20043;-63
2022/04/24 07:14:27;;;;;;;14.85;7.18;;;;;;;;;;4975253;28;20043;-63
2022/04/24 07:16:54;;;;;;;9.77;5.63;;;;;;;;;;4975518;28;20051;-63
2022/04/24 07:19:21;;;;;;;9.45;5.30;;;;;;;;;;4975282;28;20057;-63
2022/04/24 07:21:49;;;;;;;9.68;5.07;;;;;;;;;;4975296;28;20051;-63
2022/04/24 07:24:18;;;;;;;10.00;5.43;;;;;;;;;;4974857;28;20523;-63
2022/04/24 07:26:45;;;;;;;9.15;4.47;;;;;;;;;;4975101;28;20508;-63
2022/04/24 07:29:12;;;;;;;8.65;3.85;;;;;;;;;;4975066;28;20057;-63
2022/04/24 07:31:39;;;;;;;8.55;3.75;;;;;;;;;;4974979;28;20408;-63
2022/04/24 07:34:05;;;;;;;7.25;3.83;;;;;;;;;;4974685;28;20051;-63
2022/04/24 07:36:32;;;;;;;6.15;3.25;;;;;;;;;;4974558;28;20047;-64
2022/04/24 07:38:59;;;;;;;6.30;3.08;;;;;;;;;;4974821;28;20125;-64
2022/04/24 07:41:28;;;;;;;6.65;2.83;;;;;;;;;;4974660;28;20046;-64
2022/04/24 07:43:55;;;;;;;5.63;2.50;;;;;;;;;;4974935;28;20053;-64
2022/04/24 07:46:23;;;;;;;4.80;2.70;;;;;;;;;;4985472;28;20054;-64
2022/04/24 07:48:50;;;;;;;4.65;2.47;;;;;;;;;;4994230;28;20046;-64
2022/04/24 07:51:17;;;;;;;4.63;2.10;;;;;;;;;;4994153;28;20326;-64
2022/04/24 07:53:44;;;;;;;5.93;3.15;;;;;;;;;;4993846;28;20051;-66
2022/04/24 07:56:11;;;;;;;5.28;2.90;;;;;;;;;;4993767;28;20411;-64
2022/04/24 07:58:40;;;;;;;6.07;2.88;;;;;;;;;;4994318;28;20060;-64
2022/04/24 08:01:07;;;;;;;5.43;2.75;;;;;;;;;;4993981;28;20042;-64
2022/04/24 08:03:34;;;;;;;6.95;3.03;;;;;;;;;;4993888;28;20057;-64
2022/04/24 08:06:01;;;;;;;8.13;3.63;;;;;;;;;;4993849;28;20057;-64
2022/04/24 08:08:27;;;;;;;6.13;2.92;;;;;;;;;;4993828;28;20301;-64
2022/04/24 08:10:56;;;;;;;5.78;3.05;;;;;;;;;;4993765;28;20496;-64
2022/04/24 08:13:24;;;;;;;6.60;3.03;;;;;;;;;;4993697;28;20046;-63
2022/04/24 08:15:52;;;;;;;4.93;2.80;;;;;;;;;;4993374;28;20570;-63
2022/04/24 08:18:21;;;;;;;7.93;3.72;;;;;;;;;;4993510;28;20043;-64
2022/04/24 08:20:48;;;;;;;6.03;2.85;;;;;;;;;;4993317;28;20046;-63
2022/04/24 08:23:16;;;;;;;5.68;3.08;;;;;;;;;;4993424;28;20053;-63
2022/04/24 08:25:44;;;;;;;6.25;2.65;;;;;;;;;;4993260;28;20047;-63
2022/04/24 08:28:12;;;;;;;4.85;2.45;;;;;;;;;;4993213;28;20047;-63
2022/04/24 08:30:41;;;;;;;6.07;2.60;;;;;;;;;;4993469;28;20488;-63
2022/04/24 08:33:11;;;;;;;5.50;2.78;;;;;;;;;;4993102;28;20056;-63
2022/04/24 08:35:38;;;;;;;6.32;2.80;;;;;;;;;;4993252;28;20557;-64
2022/04/24 08:38:06;;;;;;;5.45;2.58;;;;;;;;;;4993367;28;20050;-63
2022/04/24 08:40:33;;;;;;;5.95;2.85;;;;;;;;;;4993200;28;20050;-63
2022/04/24 08:43:01;;;;;;;6.05;2.80;;;;;;;;;;4993202;28;20051;-64
2022/04/24 08:45:29;;;;;;;7.10;2.63;;;;;;;;;;4988817;28;20105;-63
2022/04/24 08:47:57;;;;;;;4.47;2.20;;;;;;;;;;4973980;28;20500;-64
2022/04/24 08:50:29;;;;;;;4.60;2.30;;;;;;;;;;4973516;28;20058;-63
2022/04/24 08:52:57;;;;;;;4.65;2.40;;;;;;;;;;4973692;28;20057;-63
2022/04/24 08:55:27;;;;;;;3.45;1.40;;;;;;;;;;4972893;28;20050;-63
2022/04/24 08:57:54;;;;;;;3.50;1.40;;;;;;;;;;4973895;28;20352;-63
2022/04/24 09:00:21;;;;;;;2.97;1.20;;;;;;;;;;4973594;28;20051;-63
2022/04/24 09:02:48;;;;;;;3.38;1.40;;;;;;;;;;4973880;28;20058;-64
2022/04/24 09:05:16;;;;;;;3.17;1.50;;;;;;;;;;4973419;28;20440;-64
2022/04/24 09:07:45;;;;;;;4.65;2.13;;;;;;;;;;4973615;28;20047;-63
2022/04/24 09:10:13;;;;;;;5.23;2.53;;;;;;;;;;4972493;28;20102;-63
2022/04/24 09:12:41;;;;;;;4.10;1.75;;;;;;;;;;4973443;28;20511;-63
2022/04/24 09:15:09;;;;;;;3.10;1.13;;;;;;;;;;4973006;28;20042;-64
2022/04/24 09:17:37;;;;;;;3.17;1.48;;;;;;;;;;4973264;28;20651;-64
2022/04/24 09:20:17;;;;;;;3.67;1.10;;;;;;;;;;4973192;28;20106;-63
2022/04/24 09:22:45;;;;;;;;;;;;;;;;;;4973719;28;20047;-64
2022/04/24 09:25:13;;;;;;;4.05;1.05;;;;;;;;;;4972591;28;19922;-64
2022/04/24 09:27:40;;;;;;;2.80;1.20;;;;;;;;;;4973354;28;20059;-63
2022/04/24 09:30:12;;;;;;;3.55;1.75;;;;;;;;;;4973255;28;20042;-64
2022/04/24 09:32:47;;;;;;;4.50;2.00;;;;;;;;;;4973275;28;20058;-62
2022/04/24 09:35:28;;;;;;;3.72;1.60;;;;;;;;;;4972977;28;20163;-63
2022/04/24 09:38:08;;;;;;;4.65;1.92;;;;;;;;;;4973049;28;20083;-64
2022/04/24 09:40:40;;;;;;;3.72;1.77;;;;;;;;;;4973308;28;20102;-64
2022/04/24 09:43:09;;;;;;;2.78;1.45;;;;;;;;;;4973027;28;20134;-63
2022/04/24 09:45:37;;;;;;;3.55;1.40;;;;;;;;;;4977376;28;20121;-63
2022/04/24 09:48:12;;;;;;;2.50;1.50;;;;;;;;;;4992556;28;20081;-62
2022/04/24 09:50:40;;;;;;;9.60;6.82;;;;;;;;;;4992148;28;20487;-63
2022/04/24 09:53:09;;;;;;;9.35;5.45;;;;;;;;;;4992131;28;20424;-64
2022/04/24 09:55:38;;;;;;;4.57;1.33;;;;;;;;;;4991820;28;20439;-65
2022/04/24 09:58:06;;;;;;;2.90;1.13;;;;;;;;;;4992373;28;20046;-63
2022/04/24 10:00:34;;;;;;;2.45;1.00;;;;;;;;;;4991886;28;20059;-64
2022/04/24 10:03:03;;;;;;;2.72;1.40;;;;;;;;;;4992305;28;20046;-64
2022/04/24 10:05:31;;;;;;;2.78;1.40;;;;;;;;;;4991859;28;20102;-63
2022/04/24 10:07:58;;;;;;;2.47;1.20;;;;;;;;;;4992106;28;20086;-64
2022/04/24 10:10:27;;;;;;;2.45;1.33;;;;;;;;;;4992086;28;20046;-63
2022/04/24 10:12:54;;;;;;;2.88;1.33;;;;;;;;;;4992451;28;20050;-64
2022/04/24 10:15:24;;;;;;;13.10;7.07;;;;;;;;;;4991744;28;20047;-63
2022/04/24 10:18:20;;;;;;;3.17;1.40;;;;;;;;;;4991955;28;20061;-64
2022/04/24 10:20:59;;;;;;;3.75;1.88;;;;;;;;;;4992239;28;20056;-62
2022/04/24 10:23:33;;;;;;;1.42;0.68;;;;;;;;;;4995601;28;20110;-63
2022/04/24 10:26:03;;;;;;;2.25;0.80;;;;;;;;;;4995372;28;20085;-67
2022/04/24 10:28:38;;;;;;;2.28;0.82;;;;;;;;;;4995795;28;20111;-69
2022/04/24 10:31:06;;;;;;;1.27;0.75;;;;;;;;;;4995644;28;20050;-65
2022/04/24 10:33:34;;;;;;;1.92;0.77;;;;;;;;;;4994816;28;20050;-65
2022/04/24 10:36:04;;;;;;;2.63;1.20;;;;;;;;;;4994921;28;20054;-64
2022/04/24 10:38:34;;;;;;;1.52;0.80;;;;;;;;;;4995218;28;20058;-62
2022/04/24 10:41:05;;;;;;;2.42;1.00;;;;;;;;;;4994998;28;20058;-64
2022/04/24 10:43:39;;;;;;;3.55;1.73;;;;;;;;;;4995809;28;20055;-64
2022/04/24 10:46:17;;;;;;;3.10;1.25;;;;;;;;;;4986050;28;20514;-64
2022/04/24 10:48:46;;;;;;;2.63;0.90;;;;;;;;;;4975197;28;20404;-64
2022/04/24 10:51:13;;;;;;;1.35;0.90;;;;;;;;;;4982285;28;20105;-63
2022/04/24 10:53:51;;;;;;;2.47;0.70;;;;;;;;;;4983899;28;20419;-64
2022/04/24 10:56:20;;;;;;;1.90;0.90;;;;;;;;;;4980700;28;20054;-63
2022/04/24 10:58:48;;;;;;;2.53;0.98;;;;;;;;;;4975658;28;20055;-63
2022/04/24 11:01:17;;;;;;;3.90;1.92;;;;;;;;;;4975409;28;20078;-63
2022/04/24 11:03:45;;;;;;;3.15;1.33;;;;;;;;;;4975551;28;20101;-64
2022/04/24 11:06:24;;;;;;;3.05;1.05;;;;;;;;;;4975168;28;20061;-63
2022/04/24 11:08:52;;;;;;;3.38;1.40;;;;;;;;;;4975510;28;20054;-64
2022/04/24 11:11:21;;;;;;;3.80;1.50;;;;;;;;;;4975381;28;20335;-65
2022/04/24 11:13:48;;;;;;;2.35;1.10;;;;;;;;;;4980323;28;20092;-63
2022/04/24 11:16:15;;;;;;;3.33;1.23;;;;;;;;;;4991429;28;20042;-63
2022/04/24 11:18:47;;;;;;;4.07;1.50;;;;;;;;;;4981723;28;20108;-64
2022/04/24 11:21:19;;;;;;;1.92;0.85;;;;;;;;;;4983586;28;20500;-64
2022/04/24 11:23:47;;;;;;;1.33;0.90;;;;;;;;;;4981858;28;20053;-64
2022/04/24 11:26:14;;;;;;;2.92;1.40;;;;;;;;;;4991389;28;20101;-64
2022/04/24 11:28:44;;;;;;;3.20;1.40;;;;;;;;;;4980998;28;20046;-64
2022/04/24 11:31:16;;;;;;;7.00;2.45;;;;;;;;;;4979223;28;20062;-64
2022/04/24 11:33:57;;;;;;;3.35;1.20;;;;;;;;;;4979803;28;20046;-63
2022/04/24 11:36:29;;;;;;;4.72;1.05;;;;;;;;;;4980444;28;20555;-64
2022/04/24 11:38:57;;;;;;;2.97;0.82;;;;;;;;;;4987155;28;20480;-65
2022/04/24 11:41:29;;;;;;;2.53;0.88;;;;;;;;;;4988654;28;20054;-64
2022/04/24 11:44:02;;;;;;;1.55;0.77;;;;;;;;;;4986494;28;20058;-64
2022/04/24 11:52:00;;;;;;;1.55;0.70;;;;;;;;;;4993699;28;20057;-64
2022/04/24 11:54:28;;;;;;;1.60;0.80;;;;;;;;;;4988674;28;20050;-65
2022/04/24 11:56:55;;;;;;;1.48;0.60;;;;;;;;;;4982998;28;20053;-64
2022/04/24 11:59:24;;;;;;;1.88;0.65;;;;;;;;;;4983417;28;20049;-64
2022/04/24 12:01:58;;;;;;;1.88;0.70;;;;;;;;;;4988670;28;20046;-65
2022/04/24 12:04:28;;;;;;;1.92;0.90;;;;;;;;;;4983316;28;20051;-66
2022/04/24 12:07:02;;;;;;;4.10;1.35;;;;;;;;;;4980917;28;20101;-65
2022/04/24 12:09:29;;;;;;;2.78;0.95;;;;;;;;;;4991877;28;20362;-64
2022/04/24 12:12:07;;;;;;;2.05;0.80;;;;;;;;;;4991871;28;20057;-65
2022/04/24 12:14:35;;;;;;;2.25;0.95;;;;;;;;;;4989074;28;20125;-63
2022/04/24 12:17:04;;;;;;;2.65;0.75;;;;;;;;;;4991952;28;20050;-64
2022/04/24 12:19:31;;;;;;;3.97;0.90;;;;;;;;;;4991957;28;20066;-64
2022/04/24 12:22:06;;;;;;;1.98;0.80;;;;;;;;;;4991836;28;20092;-64
2022/04/24 12:24:39;;;;;;;2.00;0.77;;;;;;;;;;4991896;28;20054;-64
2022/04/24 12:27:09;;;;;;;2.80;0.90;;;;;;;;;;4992042;28;20522;-65
2022/04/24 12:29:41;;;;;;;1.92;0.80;;;;;;;;;;4991638;28;20057;-65
2022/04/24 12:32:12;;;;;;;2.63;1.25;;;;;;;;;;4991661;28;20186;-65
2022/04/24 12:34:41;;;;;;;1.85;0.80;;;;;;;;;;4991340;28;20042;-65
2022/04/24 12:37:08;;;;;;;1.58;0.60;;;;;;;;;;4991247;28;20061;-66
2022/04/24 12:39:36;;;;;;;2.15;1.38;;;;;;;;;;4991465;28;20065;-65
2022/04/24 12:42:14;;;;;;;1.58;0.95;;;;;;;;;;4991539;28;20058;-63
2022/04/24 12:44:43;;;;;;;1.42;0.60;;;;;;;;;;4993530;28;20056;-64
2022/04/24 12:47:10;;;;;;;2.20;0.95;;;;;;;;;;4975871;28;20043;-64
2022/04/24 12:49:37;;;;;;;2.75;1.23;;;;;;;;;;4987632;28;20050;-65
2022/04/24 12:52:04;;;;;;;1.85;0.82;;;;;;;;;;4990978;28;20038;-65
2022/04/24 12:54:31;;;;;;;2.65;0.93;;;;;;;;;;4984531;28;20039;-64
2022/04/24 12:56:58;;;;;;;1.83;0.80;;;;;;;;;;4984392;28;20046;-65
2022/04/24 12:59:25;;;;;;;3.78;1.10;;;;;;;;;;4984906;28;20301;-65
2022/04/24 13:01:54;;;;;;;3.08;1.35;;;;;;;;;;4978481;28;20505;-64
2022/04/24 13:04:21;;;;;;;2.13;0.80;;;;;;;;;;4990903;28;20221;-65
2022/04/24 13:06:49;;;;;;;1.65;0.73;;;;;;;;;;4984825;28;20046;-65
2022/04/24 13:09:16;;;;;;;1.90;0.80;;;;;;;;;;4974742;28;20057;-64
2022/04/24 13:11:43;;;;;;;1.92;0.77;;;;;;;;;;4983634;28;20065;-64
2022/04/24 13:14:10;;;;;;;1.45;0.70;;;;;;;;;;4984009;28;20082;-64
2022/04/24 13:19:24;;;;;;;9.95;4.82;;;;;;;;;;4971532;28;20058;-64
2022/04/24 13:21:52;;;;;;;2.42;1.10;;;;;;;;;;4971718;28;20050;-64
2022/04/24 13:24:19;;;;;;;2.47;0.90;;;;;;;;;;4971775;28;20268;-64
2022/04/24 13:26:46;;;;;;;3.03;0.98;;;;;;;;;;4971985;28;20057;-65
2022/04/24 13:29:13;;;;;;;1.40;0.70;;;;;;;;;;4980858;28;20053;-65
2022/04/24 13:31:40;;;;;;;3.25;1.00;;;;;;;;;;4991615;28;20054;-65
2022/04/24 13:34:07;;;;;;;2.03;1.00;;;;;;;;;;4991143;28;20082;-64
2022/04/24 13:36:35;;;;;;;1.75;0.77;;;;;;;;;;4991278;28;20427;-64
2022/04/24 13:39:01;;;;;;;1.73;0.82;;;;;;;;;;4990816;28;20051;-65
2022/04/24 13:41:30;;;;;;;2.40;1.00;;;;;;;;;;4991439;28;20562;-66
2022/04/24 13:43:59;;;;;;;2.25;1.05;;;;;;;;;;4991241;28;20042;-64
2022/04/24 13:46:27;;;;;;;1.57;0.90;;;;;;;;;;4991207;28;20050;-64
2022/04/24 13:48:54;;;;;;;2.45;1.10;;;;;;;;;;4990940;28;20496;-65
2022/04/24 13:51:22;;;;;;;2.78;1.15;;;;;;;;;;4990208;28;20046;-65
2022/04/24 13:53:50;;;;;;;2.35;1.15;;;;;;;;;;4990764;28;20562;-64
2022/04/24 13:56:17;;;;;;;4.03;1.10;;;;;;;;;;4993108;28;20046;-65
2022/04/24 13:58:44;;;;;;;3.22;1.30;;;;;;;;;;4993565;28;20397;-64
2022/04/24 14:01:12;;;;;;;2.63;1.02;;;;;;;;;;4993689;28;20050;-64
2022/04/24 14:03:40;;;;;;;2.33;0.90;;;;;;;;;;4993971;28;20046;-64
2022/04/24 14:06:07;;;;;;;2.97;1.02;;;;;;;;;;4994310;28;20050;-64
2022/04/24 14:08:34;;;;;;;3.78;1.23;;;;;;;;;;5013690;28;20057;-63
2022/04/24 14:11:05;;;;;;;3.55;1.30;;;;;;;;;;5013571;28;20045;-64
2022/04/24 14:13:32;;;;;;;2.78;1.25;;;;;;;;;;5014086;28;20533;-64
2022/04/24 14:15:59;;;;;;;1.95;1.00;;;;;;;;;;5013547;28;20076;-64
2022/04/24 14:18:26;;;;;;;2.83;1.10;;;;;;;;;;5013676;28;20049;-64
2022/04/24 14:20:53;;;;;;;2.38;1.00;;;;;;;;;;5013584;28;20045;-64
2022/04/24 14:23:21;;;;;;;2.58;1.10;;;;;;;;;;5013321;28;20050;-63
2022/04/24 14:25:48;;;;;;;2.40;1.20;;;;;;;;;;4984226;28;20133;-65
2022/04/24 14:28:16;;;;;;;2.53;0.90;;;;;;;;;;4974417;28;20050;-64
2022/04/24 14:30:46;;;;;;;3.25;1.30;;;;;;;;;;4974281;28;20142;-64
2022/04/24 14:33:13;;;;;;;2.90;1.17;;;;;;;;;;4974422;28;20498;-65
2022/04/24 14:35:41;;;;;;;3.95;1.23;;;;;;;;;;4973991;28;20420;-64
2022/04/24 14:38:08;;;;;;;3.65;1.38;;;;;;;;;;4974054;28;20059;-64
2022/04/24 14:40:37;;;;;;;3.03;1.17;;;;;;;;;;4974066;28;20058;-66
2022/04/24 14:43:04;;;;;;;3.97;1.20;;;;;;;;;;4974657;28;20043;-64
2022/04/24 14:56:31;;;;;;;2.22;1.00;;;;;;;;;;4993311;28;20057;-63